Time;durP1;ratioP1;P1;durP2;ratioP2;P2;SDS_P1;SDS_P2;PMS_P1;PMS_P2;Temp;Humidity;BMP_temperature;BMP_pressure;BME280_temperature;BME280_humidity;BME280_pressure;Samples;Min_cycle;Max_cycle;Signal;HPM_P1;HPM_P2
2021/10/10 00:00:52;;;;;;;27.73;24.92;;;3.50;99.90;;;;;;5023685;28;20755;-85
2021/10/10 00:03:18;;;;;;;28.25;25.13;;;3.40;99.90;;;;;;5028522;28;20384;-85
2021/10/10 00:05:47;;;;;;;30.25;26.38;;;3.40;99.90;;;;;;5023086;28;20733;-84
2021/10/10 00:08:12;;;;;;;29.05;25.95;;;3.30;99.90;;;;;;5040673;28;20483;-85
2021/10/10 00:10:38;;;;;;;28.73;25.67;;;3.30;99.90;;;;;;5029769;28;20790;-84
2021/10/10 00:13:03;;;;;;;29.43;26.43;;;3.30;99.90;;;;;;5036716;28;20395;-84
2021/10/10 00:15:29;;;;;;;29.37;26.07;;;3.20;99.90;;;;;;5048792;28;20483;-85
2021/10/10 00:17:55;;;;;;;29.55;26.35;;;3.20;99.90;;;;;;5047233;28;20395;-85
2021/10/10 00:20:25;;;;;;;28.70;25.88;;;3.10;99.90;;;;;;5022819;28;20513;-85
2021/10/10 00:22:50;;;;;;;28.67;25.77;;;3.10;99.90;;;;;;5048878;28;20383;-83
2021/10/10 00:25:16;;;;;;;27.85;25.02;;;3.10;99.90;;;;;;5030604;28;20384;-85
2021/10/10 00:27:42;;;;;;;26.27;23.60;;;3.00;99.90;;;;;;5041526;28;20472;-83
2021/10/10 00:30:09;;;;;;;26.67;23.90;;;3.00;99.90;;;;;;5046241;28;20881;-84
2021/10/10 00:32:35;;;;;;;26.20;23.55;;;2.90;99.90;;;;;;5032771;28;20384;-85
2021/10/10 00:35:01;;;;;;;27.23;24.02;;;2.90;99.90;;;;;;5035702;28;20389;-84
2021/10/10 00:37:26;;;;;;;25.73;23.07;;;2.90;99.90;;;;;;5031772;28;20387;-84
2021/10/10 00:39:52;;;;;;;26.30;23.43;;;2.80;99.90;;;;;;5048875;28;20416;-85
2021/10/10 00:42:18;;;;;;;26.83;23.27;;;2.80;99.90;;;;;;5050072;28;21011;-84
2021/10/10 00:44:46;;;;;;;27.10;24.30;;;2.70;99.90;;;;;;5050206;28;21021;-85
2021/10/10 00:47:12;;;;;;;29.65;24.30;;;2.70;99.90;;;;;;5049575;28;20512;-85
2021/10/10 00:49:38;;;;;;;27.92;25.02;;;2.70;99.90;;;;;;5049851;28;20398;-85
2021/10/10 00:52:05;;;;;;;28.73;25.70;;;2.70;99.90;;;;;;5049806;28;20368;-84
2021/10/10 00:54:31;;;;;;;25.70;23.10;;;2.70;99.90;;;;;;5049893;28;20746;-85
2021/10/10 00:56:58;;;;;;;24.92;22.23;;;2.60;99.90;;;;;;5031455;28;20384;-85
2021/10/10 00:59:25;;;;;;;26.67;23.98;;;2.60;99.90;;;;;;5031634;28;20503;-85
2021/10/10 01:01:51;;;;;;;26.20;23.42;;;2.60;99.90;;;;;;5031718;28;20904;-85
2021/10/10 01:04:18;;;;;;;27.48;24.58;;;2.50;99.90;;;;;;5031441;28;21035;-85
2021/10/10 01:06:44;;;;;;;28.05;25.02;;;2.50;99.90;;;;;;5026338;28;20468;-85
2021/10/10 01:09:14;;;;;;;29.03;25.97;;;2.40;99.90;;;;;;5029593;28;20481;-84
2021/10/10 01:11:41;;;;;;;29.25;26.25;;;2.40;99.90;;;;;;5028022;28;20401;-84
2021/10/10 01:14:07;;;;;;;29.13;26.05;;;2.40;99.90;;;;;;5040043;28;20379;-85
2021/10/10 01:16:33;;;;;;;29.13;26.13;;;2.30;99.90;;;;;;5030810;28;20468;-85
2021/10/10 01:18:59;;;;;;;29.45;26.38;;;2.30;99.90;;;;;;5038271;28;20885;-85
2021/10/10 01:21:25;;;;;;;27.63;24.73;;;2.30;99.90;;;;;;5031532;28;20466;-85
2021/10/10 01:23:51;;;;;;;27.92;25.10;;;2.20;99.90;;;;;;5012599;28;20401;-85
2021/10/10 01:26:18;;;;;;;28.08;25.17;;;2.20;99.90;;;;;;5028371;28;20378;-85
2021/10/10 01:28:44;;;;;;;28.15;25.23;;;2.20;99.90;;;;;;5034856;28;20484;-85
2021/10/10 01:31:10;;;;;;;27.03;24.23;;;2.20;99.90;;;;;;5031552;28;20388;-85
2021/10/10 01:33:36;;;;;;;28.40;25.40;;;2.10;99.90;;;;;;5048816;28;20383;-85
2021/10/10 01:36:02;;;;;;;28.45;25.55;;;2.10;99.90;;;;;;5036117;28;20562;-85
2021/10/10 01:38:28;;;;;;;28.58;25.58;;;2.10;99.90;;;;;;5031134;28;20404;-85
2021/10/10 01:40:54;;;;;;;29.25;26.35;;;2.10;99.90;;;;;;5035965;28;20973;-85
2021/10/10 01:43:20;;;;;;;29.73;26.33;;;2.10;99.90;;;;;;5049294;28;20378;-84
2021/10/10 01:45:46;;;;;;;29.02;25.25;;;2.00;99.90;;;;;;5031257;28;20474;-85
2021/10/10 01:48:12;;;;;;;29.13;26.23;;;2.10;99.90;;;;;;5019657;28;20814;-85
2021/10/10 01:50:38;;;;;;;29.10;25.87;;;2.00;99.90;;;;;;5047735;28;20368;-85
2021/10/10 01:53:04;;;;;;;33.63;30.02;;;2.00;99.90;;;;;;5045902;28;21308;-85
2021/10/10 01:55:30;;;;;;;31.90;28.60;;;2.00;99.90;;;;;;5014207;28;20763;-85
2021/10/10 01:57:56;;;;;;;28.93;25.93;;;2.00;99.90;;;;;;5021472;28;20385;-85
2021/10/10 02:00:22;;;;;;;30.40;27.30;;;2.00;99.90;;;;;;5029003;28;20392;-85
2021/10/10 02:02:48;;;;;;;30.08;26.95;;;2.10;99.90;;;;;;5011339;28;20807;-85
2021/10/10 02:05:14;;;;;;;30.77;27.58;;;2.00;99.90;;;;;;5028856;28;20388;-85
2021/10/10 02:07:40;;;;;;;30.65;27.35;;;2.00;99.90;;;;;;5035949;28;20901;-85
2021/10/10 02:10:09;;;;;;;29.58;26.50;;;2.00;99.90;;;;;;5016132;28;20783;-85
2021/10/10 02:12:38;;;;;;;29.60;26.33;;;2.00;99.90;;;;;;5030737;28;20393;-85
2021/10/10 02:15:05;;;;;;;31.15;27.88;;;2.00;99.90;;;;;;5049375;28;20819;-85
2021/10/10 02:17:31;;;;;;;33.70;28.27;;;1.90;99.90;;;;;;5047711;28;20376;-85
2021/10/10 02:19:57;;;;;;;32.88;28.95;;;1.90;99.90;;;;;;5048018;28;20376;-85
2021/10/10 02:22:22;;;;;;;29.77;26.70;;;1.90;99.90;;;;;;5048756;28;20425;-85
2021/10/10 02:24:48;;;;;;;31.27;27.97;;;1.90;99.90;;;;;;5048312;28;20398;-85
2021/10/10 02:27:14;;;;;;;32.87;29.30;;;1.90;99.90;;;;;;5048539;28;20454;-85
2021/10/10 02:29:39;;;;;;;32.47;28.70;;;1.90;99.90;;;;;;5040571;28;20582;-85
2021/10/10 02:32:05;;;;;;;30.13;26.88;;;2.00;99.90;;;;;;5039470;28;20391;-85
2021/10/10 02:34:30;;;;;;;28.83;25.83;;;1.90;99.90;;;;;;5035019;28;20882;-85
2021/10/10 02:36:56;;;;;;;31.88;28.58;;;1.90;99.90;;;;;;5033032;28;20864;-85
2021/10/10 02:39:22;;;;;;;33.17;29.57;;;1.90;99.90;;;;;;5036574;28;20385;-84
2021/10/10 02:41:47;;;;;;;31.70;28.30;;;1.80;99.90;;;;;;5032333;28;20389;-85
2021/10/10 02:44:13;;;;;;;34.78;30.50;;;1.80;99.90;;;;;;5031221;28;20389;-86
2021/10/10 02:46:39;;;;;;;33.05;29.55;;;1.80;99.90;;;;;;5050228;28;20474;-85
2021/10/10 02:49:04;;;;;;;36.08;31.27;;;1.80;99.90;;;;;;5034437;28;20385;-86
2021/10/10 02:51:30;;;;;;;34.67;30.98;;;1.80;99.90;;;;;;5045069;28;20747;-86
2021/10/10 02:53:56;;;;;;;33.20;29.67;;;1.80;99.90;;;;;;5028516;28;20462;-85
2021/10/10 02:56:22;;;;;;;34.75;31.05;;;1.80;99.90;;;;;;5052057;28;20376;-85
2021/10/10 02:58:48;;;;;;;34.33;30.37;;;1.80;99.90;;;;;;5051385;28;20711;-85
2021/10/10 03:01:13;;;;;;;33.25;29.60;;;1.80;99.90;;;;;;5034097;28;20441;-85
2021/10/10 03:03:39;;;;;;;33.10;29.50;;;1.80;99.90;;;;;;5023946;28;20385;-84
2021/10/10 03:06:05;;;;;;;31.55;28.13;;;1.80;99.90;;;;;;5017970;28;20464;-85
2021/10/10 03:08:30;;;;;;;34.07;29.50;;;1.80;99.90;;;;;;5032468;28;20396;-85
2021/10/10 03:10:56;;;;;;;32.47;28.97;;;1.80;99.90;;;;;;5051465;28;20375;-86
2021/10/10 03:13:22;;;;;;;33.40;28.83;;;1.80;99.90;;;;;;5052217;28;20451;-84
2021/10/10 03:15:47;;;;;;;38.03;32.50;;;1.80;99.90;;;;;;5018806;28;20743;-85
2021/10/10 03:18:13;;;;;;;35.07;30.83;;;1.70;99.90;;;;;;5017561;28;20402;-85
2021/10/10 03:20:38;;;;;;;36.00;31.65;;;1.70;99.90;;;;;;5052061;28;20372;-86
2021/10/10 03:23:04;;;;;;;38.83;34.53;;;1.70;99.90;;;;;;5034362;28;20430;-85
2021/10/10 03:25:30;;;;;;;40.80;36.30;;;1.70;99.90;;;;;;5033739;28;20464;-84
2021/10/10 03:27:55;;;;;;;42.23;37.63;;;1.70;99.90;;;;;;5014577;28;20405;-85
2021/10/10 03:30:21;;;;;;;43.97;36.73;;;1.80;99.90;;;;;;5032877;28;20389;-85
2021/10/10 03:32:47;;;;;;;43.95;37.63;;;1.80;99.90;;;;;;5051282;28;20463;-85
2021/10/10 03:35:12;;;;;;;41.88;36.47;;;1.90;99.90;;;;;;5020664;28;20897;-85
2021/10/10 03:37:38;;;;;;;43.05;36.55;;;2.00;99.90;;;;;;5025031;28;20395;-85
2021/10/10 03:40:06;;;;;;;45.25;37.70;;;2.00;99.90;;;;;;5021512;28;20902;-85
2021/10/10 03:42:32;;;;;;;40.97;36.30;;;2.10;99.90;;;;;;5013604;28;20396;-85
2021/10/10 03:44:58;;;;;;;39.00;34.80;;;2.20;99.90;;;;;;5014092;28;20435;-85
2021/10/10 03:47:23;;;;;;;41.50;35.80;;;2.20;99.90;;;;;;5013272;28;20478;-85
2021/10/10 03:49:49;;;;;;;39.60;35.30;;;2.30;99.90;;;;;;5031214;28;20920;-84
2021/10/10 03:52:14;;;;;;;47.30;38.03;;;2.20;99.90;;;;;;5013823;28;20867;-86
2021/10/10 03:57:23;;;;;;;42.72;35.80;;;2.20;99.90;;;;;;5035358;28;20465;-85
2021/10/10 03:59:53;;;;;;;44.40;37.22;;;2.20;99.90;;;;;;5032915;28;20395;-85
2021/10/10 04:02:19;;;;;;;41.55;35.67;;;2.20;99.90;;;;;;5048901;28;20908;-86
2021/10/10 04:04:46;;;;;;;40.00;33.65;;;2.10;99.90;;;;;;5043096;28;20389;-85
2021/10/10 04:07:11;;;;;;;40.75;34.55;;;2.10;99.90;;;;;;5027207;28;20457;-85
2021/10/10 04:09:37;;;;;;;40.70;36.00;;;2.10;99.90;;;;;;5049122;28;20379;-85
2021/10/10 04:12:03;;;;;;;37.03;32.87;;;2.00;99.90;;;;;;5032503;28;20426;-84
2021/10/10 04:14:28;;;;;;;36.83;31.80;;;2.00;99.90;;;;;;5031124;28;20391;-85
2021/10/10 04:16:54;;;;;;;37.63;32.63;;;1.90;99.90;;;;;;5039029;28;20389;-85
2021/10/10 04:19:19;;;;;;;35.90;31.92;;;1.90;99.90;;;;;;5030575;28;20382;-85
2021/10/10 04:21:45;;;;;;;37.00;33.00;;;1.80;99.90;;;;;;5030641;28;20393;-85
2021/10/10 04:24:10;;;;;;;38.83;34.60;;;1.70;99.90;;;;;;5031614;28;20393;-84
2021/10/10 04:26:36;;;;;;;42.47;36.17;;;1.70;99.90;;;;;;5020373;28;20391;-85
2021/10/10 04:29:02;;;;;;;39.07;34.77;;;1.70;99.90;;;;;;5032441;28;20950;-85
2021/10/10 04:31:27;;;;;;;40.42;34.58;;;1.60;99.90;;;;;;5041585;28;20425;-85
2021/10/10 04:33:53;;;;;;;39.08;33.50;;;1.60;99.90;;;;;;5030076;28;20388;-85
2021/10/10 04:36:18;;;;;;;38.43;32.90;;;1.60;99.90;;;;;;5048671;28;20819;-85
2021/10/10 04:38:44;;;;;;;39.43;34.30;;;1.60;99.90;;;;;;5049832;28;20364;-85
2021/10/10 04:41:09;;;;;;;41.85;34.55;;;1.60;99.90;;;;;;5018301;28;20378;-85
2021/10/10 04:43:35;;;;;;;39.60;34.42;;;1.60;99.90;;;;;;5013205;28;20382;-85
2021/10/10 04:46:00;;;;;;;39.47;34.23;;;1.60;99.90;;;;;;5029206;28;20743;-84
2021/10/10 04:48:26;;;;;;;41.70;35.30;;;1.70;99.90;;;;;;5012011;28;20499;-86
2021/10/10 04:50:52;;;;;;;41.15;35.10;;;1.60;99.90;;;;;;5012340;28;20386;-86
2021/10/10 04:53:18;;;;;;;38.17;32.97;;;1.60;99.90;;;;;;5043065;28;20380;-86
2021/10/10 04:55:44;;;;;;;40.05;35.20;;;1.60;99.90;;;;;;5031562;28;20911;-85
2021/10/10 04:58:09;;;;;;;38.87;33.30;;;1.60;99.90;;;;;;5049608;28;20417;-85
2021/10/10 05:00:35;;;;;;;41.37;35.47;;;1.60;99.90;;;;;;5032156;28;20430;-85
2021/10/10 05:03:00;;;;;;;39.95;34.25;;;1.60;99.90;;;;;;5049806;28;20394;-84
2021/10/10 05:05:26;;;;;;;36.20;32.30;;;1.50;99.90;;;;;;5035438;28;20922;-85
2021/10/10 05:07:51;;;;;;;41.97;35.90;;;1.50;99.90;;;;;;5031295;28;20412;-85
2021/10/10 05:10:17;;;;;;;43.43;37.07;;;1.50;99.90;;;;;;5031956;28;20387;-85
2021/10/10 05:12:43;;;;;;;45.60;37.90;;;1.40;99.90;;;;;;5043847;28;20459;-85
2021/10/10 05:15:09;;;;;;;45.05;37.75;;;1.40;99.90;;;;;;5030062;28;20413;-85
2021/10/10 05:17:34;;;;;;;46.08;37.25;;;1.40;99.90;;;;;;5029734;28;20489;-84
2021/10/10 05:20:00;;;;;;;42.20;37.17;;;1.40;99.90;;;;;;5020456;28;20924;-85
2021/10/10 05:22:26;;;;;;;41.47;34.38;;;1.40;99.90;;;;;;5048153;28;20458;-85
2021/10/10 05:24:54;;;;;;;45.15;38.85;;;1.40;99.90;;;;;;5021387;28;20388;-85
2021/10/10 05:27:19;;;;;;;45.53;39.13;;;1.40;99.90;;;;;;5045442;28;20499;-84
2021/10/10 05:29:45;;;;;;;47.85;37.72;;;1.50;99.90;;;;;;5044265;28;20459;-85
2021/10/10 05:32:11;;;;;;;45.88;36.85;;;1.50;99.90;;;;;;5035006;28;20373;-85
2021/10/10 05:34:36;;;;;;;43.03;37.00;;;1.50;99.90;;;;;;5029281;28;20790;-84
2021/10/10 05:37:02;;;;;;;43.90;36.93;;;1.50;99.90;;;;;;5035636;28;20745;-84
2021/10/10 05:39:28;;;;;;;42.53;36.95;;;1.60;99.90;;;;;;5031123;28;20376;-85
2021/10/10 05:41:53;;;;;;;47.28;40.00;;;1.60;99.90;;;;;;5048739;28;20398;-85
2021/10/10 05:44:19;;;;;;;48.60;40.35;;;1.50;99.90;;;;;;5049081;28;20367;-85
2021/10/10 05:46:44;;;;;;;51.08;41.85;;;1.60;99.90;;;;;;5047843;28;20742;-85
2021/10/10 05:49:10;;;;;;;47.33;39.70;;;1.60;99.90;;;;;;5039465;28;20385;-85
2021/10/10 05:51:35;;;;;;;61.17;51.43;;;1.60;99.90;;;;;;5011452;28;20470;-85
2021/10/10 05:54:02;;;;;;;57.42;48.35;;;1.60;99.90;;;;;;5030128;28;20380;-85
2021/10/10 05:56:28;;;;;;;51.60;44.33;;;1.60;99.90;;;;;;5042536;28;20396;-85
2021/10/10 05:59:02;;;;;;;51.60;43.63;;;1.60;99.90;;;;;;5014136;28;20455;-85
2021/10/10 06:01:28;;;;;;;50.70;44.97;;;1.60;99.90;;;;;;5029947;28;20473;-85
2021/10/10 06:03:53;;;;;;;60.47;52.00;;;1.70;99.90;;;;;;5048744;28;20375;-85
2021/10/10 06:06:19;;;;;;;265.97;101.60;;;1.70;99.90;;;;;;5029973;28;20375;-85
2021/10/10 06:08:45;;;;;;;235.60;102.22;;;1.80;99.90;;;;;;5037917;28;20447;-85
2021/10/10 06:11:10;;;;;;;462.07;130.20;;;1.90;99.90;;;;;;5011378;28;20583;-85
2021/10/10 06:13:38;;;;;;;87.83;73.57;;;2.00;99.90;;;;;;5034067;28;20437;-85
2021/10/10 06:16:05;;;;;;;212.48;87.45;;;2.10;99.90;;;;;;5048768;28;20380;-84
2021/10/10 06:18:32;;;;;;;78.90;54.53;;;2.30;99.90;;;;;;5030385;28;20462;-84
2021/10/10 06:20:57;;;;;;;88.05;49.88;;;2.40;99.90;;;;;;5030314;28;20851;-84
2021/10/10 06:23:23;;;;;;;132.63;57.87;;;2.60;99.90;;;;;;5047179;28;20426;-85
2021/10/10 06:25:48;;;;;;;144.80;61.10;;;2.70;99.90;;;;;;5048257;28;20750;-85
2021/10/10 06:28:14;;;;;;;50.63;41.70;;;2.90;99.90;;;;;;5048461;28;20492;-85
2021/10/10 06:30:40;;;;;;;50.93;43.07;;;3.10;99.90;;;;;;5048434;28;20375;-85
2021/10/10 06:33:05;;;;;;;54.97;46.00;;;3.30;99.90;;;;;;5036926;28;20385;-86
2021/10/10 06:35:31;;;;;;;61.87;52.40;;;3.50;99.90;;;;;;5017476;28;20471;-86
2021/10/10 06:37:56;;;;;;;59.78;50.45;;;3.70;99.90;;;;;;5032534;28;20384;-85
2021/10/10 06:40:22;;;;;;;57.83;47.50;;;3.80;99.90;;;;;;5017076;28;20893;-85
2021/10/10 06:42:48;;;;;;;40.63;36.23;;;4.00;99.90;;;;;;5019587;28;20889;-87
2021/10/10 06:45:13;;;;;;;39.20;34.67;;;4.20;99.90;;;;;;5030927;28;20379;-86
2021/10/10 06:47:40;;;;;;;38.07;33.97;;;4.40;99.90;;;;;;5029891;28;20439;-86
2021/10/10 06:50:06;;;;;;;36.75;32.33;;;4.50;99.90;;;;;;5037309;28;20404;-86
2021/10/10 06:52:33;;;;;;;35.70;30.60;;;4.70;99.90;;;;;;5045059;28;20430;-86
2021/10/10 06:54:59;;;;;;;34.35;30.60;;;4.90;99.90;;;;;;5028039;28;20379;-87
2021/10/10 06:57:28;;;;;;;40.25;33.70;;;5.00;99.90;;;;;;5036218;28;20381;-86
2021/10/10 06:59:58;;;;;;;36.70;32.60;;;5.20;99.90;;;;;;5011879;28;20391;-86
2021/10/10 07:02:24;;;;;;;40.08;34.08;;;5.40;99.90;;;;;;5021272;28;20474;-86
2021/10/10 07:04:49;;;;;;;43.25;35.45;;;5.60;99.90;;;;;;5028210;28;20878;-86
2021/10/10 07:07:15;;;;;;;45.83;35.70;;;5.80;99.90;;;;;;5031695;28;20396;-86
2021/10/10 07:09:40;;;;;;;32.10;28.30;;;5.90;99.90;;;;;;5038967;28;20379;-86
2021/10/10 07:12:07;;;;;;;31.97;27.50;;;6.10;99.90;;;;;;5046860;28;20388;-86
2021/10/10 07:14:33;;;;;;;35.97;29.63;;;6.30;99.90;;;;;;5030421;28;20475;-85
2021/10/10 07:16:59;;;;;;;32.50;28.17;;;6.40;99.90;;;;;;5049502;28;20456;-86
2021/10/10 07:19:32;;;;;;;33.60;28.57;;;6.50;99.90;;;;;;5052737;28;20441;-86
2021/10/10 07:22:13;;;;;;;32.50;27.63;;;6.60;99.90;;;;;;5052444;28;20392;-86
2021/10/10 07:27:22;;;;;;;35.90;29.08;;;6.80;99.90;;;;;;5052635;28;20423;-86
2021/10/10 07:29:48;;;;;;;31.03;27.67;;;6.90;99.90;;;;;;5050676;28;20387;-87
2021/10/10 07:32:14;;;;;;;32.78;28.92;;;7.00;99.90;;;;;;5033797;28;20384;-86
2021/10/10 07:34:40;;;;;;;32.78;28.60;;;7.10;99.90;;;;;;5033800;28;20388;-85
2021/10/10 07:37:05;;;;;;;33.85;28.77;;;7.30;99.90;;;;;;5051738;28;20381;-84
2021/10/10 07:39:31;;;;;;;31.00;27.42;;;7.50;99.90;;;;;;5033669;28;20383;-85
2021/10/10 07:41:57;;;;;;;31.70;27.77;;;7.60;99.90;;;;;;5050010;28;20889;-85
2021/10/10 07:44:27;;;;;;;32.65;27.42;;;7.90;99.90;;;;;;5051741;28;20391;-86
2021/10/10 07:47:15;;;;;;;31.50;27.48;;;7.90;99.90;;;;;;5033980;28;20392;-85
2021/10/10 07:49:42;;;;;;;31.45;27.10;;;8.10;99.90;;;;;;5033858;28;20934;-85
2021/10/10 07:52:08;;;;;;;31.52;26.73;;;8.30;99.90;;;;;;5051810;28;20376;-82
2021/10/10 07:54:34;;;;;;;33.65;27.92;;;8.50;99.90;;;;;;5049873;28;20387;-85
2021/10/10 07:57:10;;;;;;;32.33;27.83;;;8.60;99.90;;;;;;5046856;28;20399;-84
2021/10/10 07:59:36;;;;;;;33.25;27.40;;;8.60;99.90;;;;;;5041693;28;20384;-84
2021/10/10 08:02:01;;;;;;;29.25;25.73;;;8.60;99.90;;;;;;5034275;28;20387;-86
2021/10/10 08:04:28;;;;;;;29.47;24.80;;;8.70;99.90;;;;;;5032566;28;20380;-85
2021/10/10 08:06:54;;;;;;;31.40;25.95;;;8.90;99.90;;;;;;5025009;28;20489;-86
2021/10/10 08:09:20;;;;;;;30.55;25.45;;;9.10;99.90;;;;;;5018773;28;20425;-86
2021/10/10 08:11:46;;;;;;;31.75;25.95;;;9.20;99.90;;;;;;5041403;28;20462;-86
2021/10/10 08:14:12;;;;;;;29.13;24.85;;;9.30;99.90;;;;;;5048095;28;20390;-86
2021/10/10 08:16:39;;;;;;;32.70;26.57;;;9.40;99.90;;;;;;5048718;28;20904;-83
2021/10/10 08:19:05;;;;;;;28.08;24.63;;;9.40;99.90;;;;;;5015722;28;20385;-85
2021/10/10 08:21:31;;;;;;;31.52;24.55;;;9.50;99.90;;;;;;5015209;28;20382;-85
2021/10/10 08:24:01;;;;;;;32.00;25.63;;;9.60;99.90;;;;;;5031763;28;20415;-85
2021/10/10 08:26:33;;;;;;;27.52;23.58;;;9.60;99.90;;;;;;5033514;28;20399;-86
2021/10/10 08:28:59;;;;;;;28.38;24.55;;;9.80;99.90;;;;;;5023031;28;20401;-85
2021/10/10 08:31:26;;;;;;;29.67;24.85;;;9.90;99.90;;;;;;5013798;28;20392;-85
2021/10/10 08:33:52;;;;;;;30.73;25.15;;;10.10;99.90;;;;;;5028127;28;20383;-86
2021/10/10 08:36:18;;;;;;;28.77;23.92;;;10.20;99.90;;;;;;5034258;28;20375;-83
2021/10/10 08:38:44;;;;;;;27.35;23.27;;;10.40;99.90;;;;;;5021490;28;20385;-84
2021/10/10 08:41:12;;;;;;;30.15;22.70;;;9.90;99.90;;;;;;5030923;28;20890;-87
2021/10/10 08:43:40;;;;;;;26.67;21.92;;;10.70;99.90;;;;;;5013293;28;20389;-84
2021/10/10 08:46:07;;;;;;;25.90;21.08;;;10.80;99.90;;;;;;5031829;28;20390;-86
2021/10/10 08:48:33;;;;;;;22.70;20.27;;;10.80;99.90;;;;;;5022699;28;20494;-86
2021/10/10 08:50:59;;;;;;;27.67;20.15;;;11.00;99.90;;;;;;5050056;28;20459;-87
2021/10/10 08:53:25;;;;;;;24.17;20.23;;;11.00;99.90;;;;;;5032602;28;20441;-84
2021/10/10 08:55:52;;;;;;;25.48;19.70;;;11.10;99.90;;;;;;5050977;28;20380;-87
2021/10/10 08:58:23;;;;;;;26.38;20.58;;;11.20;99.90;;;;;;5050382;28;20411;-86
2021/10/10 09:01:00;;;;;;;24.48;18.52;;;11.30;99.90;;;;;;5032901;28;20384;-85
2021/10/10 09:03:26;;;;;;;24.50;19.43;;;11.50;99.90;;;;;;5032933;28;20412;-83
2021/10/10 09:05:52;;;;;;;24.20;18.67;;;11.60;99.90;;;;;;5038700;28;20769;-84
2021/10/10 09:08:19;;;;;;;23.52;19.35;;;11.70;99.90;;;;;;5030633;28;20886;-85
2021/10/10 09:10:45;;;;;;;21.70;18.00;;;11.80;99.90;;;;;;5030100;28;20377;-85
2021/10/10 09:13:16;;;;;;;21.27;18.45;;;11.90;99.90;;;;;;5012838;28;20397;-84
2021/10/10 09:15:46;;;;;;;24.77;18.38;;;11.90;99.90;;;;;;5030412;28;20412;-84
2021/10/10 09:18:12;;;;;;;22.13;16.60;;;12.00;99.90;;;;;;5029989;28;20389;-85
2021/10/10 09:20:42;;;;;;;23.02;17.88;;;12.20;99.90;;;;;;5012215;28;20778;-84
2021/10/10 09:23:33;;;;;;;21.45;15.98;;;12.30;99.90;;;;;;5012299;28;20431;-86
2021/10/10 09:26:12;;;;;;;21.67;16.52;;;12.30;99.90;;;;;;5027140;28;20391;-86
2021/10/10 09:28:40;;;;;;;31.90;16.52;;;12.30;99.90;;;;;;5032306;28;20403;-84
2021/10/10 09:31:07;;;;;;;22.13;16.10;;;12.20;99.90;;;;;;5049939;28;20426;-84
2021/10/10 09:33:52;;;;;;;19.48;16.05;;;12.30;99.90;;;;;;5032081;28;20391;-86
2021/10/10 09:36:24;;;;;;;17.77;14.50;;;12.30;99.90;;;;;;5030225;28;20494;-83
2021/10/10 09:44:01;;;;;;;17.40;13.38;;;12.60;99.90;;;;;;5048711;28;20376;-84
2021/10/10 09:46:28;;;;;;;15.32;12.80;;;12.70;99.90;;;;;;5011906;28;20389;-84
2021/10/10 09:48:54;;;;;;;18.60;14.38;;;12.90;99.90;;;;;;5012093;28;20899;-85
2021/10/10 09:51:34;;;;;;;18.00;13.53;;;12.90;99.90;;;;;;5029541;28;20389;-86
2021/10/10 09:54:04;;;;;;;20.13;14.73;;;13.00;99.90;;;;;;5028436;28;20459;-83
2021/10/10 09:56:30;;;;;;;18.80;12.60;;;13.10;99.90;;;;;;5047824;28;20433;-83
2021/10/10 09:58:56;;;;;;;15.93;12.35;;;12.90;99.90;;;;;;5027441;28;20902;-86
2021/10/10 10:01:23;;;;;;;19.33;13.27;;;12.80;99.90;;;;;;5030079;28;20394;-85
2021/10/10 10:04:07;;;;;;;16.37;12.07;;;12.70;99.90;;;;;;5041814;28;20445;-85
2021/10/10 10:06:39;;;;;;;17.13;12.73;;;12.70;99.90;;;;;;5039563;28;20381;-84
2021/10/10 10:09:07;;;;;;;16.92;12.35;;;12.70;99.90;;;;;;5040599;28;20443;-84
2021/10/10 10:11:36;;;;;;;16.20;11.83;;;12.80;99.90;;;;;;5019222;28;20903;-85
2021/10/10 10:14:04;;;;;;;14.73;10.60;;;12.80;99.90;;;;;;5034289;28;20394;-84
2021/10/10 10:16:32;;;;;;;15.52;11.10;;;12.80;99.90;;;;;;5041246;28;20380;-84
2021/10/10 10:19:02;;;;;;;17.52;11.38;;;12.80;99.90;;;;;;5039465;28;20406;-85
2021/10/10 10:21:30;;;;;;;15.80;12.00;;;12.80;99.90;;;;;;5023689;28;20403;-84
2021/10/10 10:23:59;;;;;;;22.45;11.93;;;12.80;99.90;;;;;;5023600;28;20794;-84
2021/10/10 10:26:34;;;;;;;14.57;10.30;;;12.90;99.90;;;;;;5037908;28;20433;-84
2021/10/10 10:29:11;;;;;;;12.00;9.30;;;12.90;99.90;;;;;;5016330;28;20448;-85
2021/10/10 10:31:37;;;;;;;12.48;8.63;;;12.80;99.90;;;;;;5041201;28;20386;-85
2021/10/10 10:34:22;;;;;;;13.00;8.05;;;12.80;99.90;;;;;;5044304;28;20381;-84
2021/10/10 10:37:04;;;;;;;15.60;8.90;;;12.90;99.90;;;;;;5035499;28;20388;-85
2021/10/10 10:39:42;;;;;;;11.80;7.88;;;12.80;99.90;;;;;;5039012;28;20396;-83
2021/10/10 10:42:12;;;;;;;12.02;8.00;;;12.90;99.90;;;;;;5036163;28;20389;-84
2021/10/10 10:44:43;;;;;;;11.82;8.35;;;13.00;99.90;;;;;;5041993;28;20372;-84
2021/10/10 10:47:19;;;;;;;14.07;8.55;;;13.00;99.90;;;;;;5036784;28;20372;-83
2021/10/10 10:49:55;;;;;;;12.05;7.65;;;13.10;99.90;;;;;;5032707;28;20800;-84
2021/10/10 10:52:27;;;;;;;13.50;8.07;;;13.20;99.90;;;;;;5026004;28;20528;-85
2021/10/10 10:55:12;;;;;;;15.27;8.60;;;13.30;99.90;;;;;;5044812;28;20410;-85
2021/10/10 10:57:48;;;;;;;14.32;8.02;;;13.40;99.90;;;;;;5038718;28;20396;-83
2021/10/10 11:00:19;;;;;;;10.93;7.43;;;13.40;99.40;;;;;;5024741;28;20882;-86
2021/10/10 11:02:53;;;;;;;13.50;8.20;;;13.40;99.90;;;;;;5043657;28;20388;-86
2021/10/10 11:05:36;;;;;;;13.82;7.85;;;13.60;99.90;;;;;;5022751;28;20698;-84
2021/10/10 11:08:03;;;;;;;12.00;7.00;;;13.70;99.90;;;;;;5039927;28;20736;-84
2021/10/10 11:10:30;;;;;;;12.60;6.97;;;13.70;99.90;;;;;;5043119;28;20396;-84
2021/10/10 11:13:17;;;;;;;14.52;7.75;;;13.70;99.90;;;;;;5043372;28;21477;-84
2021/10/10 11:15:52;;;;;;;11.15;7.63;;;13.80;99.90;;;;;;5039614;28;20468;-85
2021/10/10 11:18:28;;;;;;;12.07;7.70;;;13.80;98.70;;;;;;5040745;28;20869;-85
2021/10/10 11:21:00;;;;;;;15.67;8.00;;;13.60;99.10;;;;;;5044527;28;20542;-85
2021/10/10 11:23:27;;;;;;;11.20;7.85;;;13.70;99.50;;;;;;5030731;28;20405;-85
2021/10/10 11:25:55;;;;;;;13.80;8.13;;;13.70;99.20;;;;;;5033374;28;20470;-85
2021/10/10 11:28:36;;;;;;;19.38;8.52;;;13.60;99.10;;;;;;5033213;28;20403;-85
2021/10/10 11:31:06;;;;;;;13.30;8.10;;;13.50;99.30;;;;;;5043757;28;20386;-84
2021/10/10 11:33:37;;;;;;;9.52;7.65;;;13.50;99.30;;;;;;5042210;28;20388;-84
2021/10/10 11:36:03;;;;;;;15.17;8.27;;;13.50;99.60;;;;;;5035797;28;20424;-84
2021/10/10 11:38:46;;;;;;;12.15;7.95;;;13.50;99.90;;;;;;5036874;28;20550;-83
2021/10/10 11:41:11;;;;;;;12.98;7.20;;;13.50;97.90;;;;;;5037619;28;20386;-84
2021/10/10 11:43:37;;;;;;;13.20;7.83;;;13.40;97.80;;;;;;5040662;28;20389;-87
2021/10/10 11:46:03;;;;;;;12.90;7.43;;;13.40;98.20;;;;;;5026569;28;20738;-85
2021/10/10 11:49:00;;;;;;;9.93;7.13;;;13.30;97.80;;;;;;5026304;28;20538;-85
2021/10/10 11:51:39;;;;;;;11.63;7.43;;;13.40;98.00;;;;;;5051149;28;20384;-86
2021/10/10 11:54:06;;;;;;;12.97;6.90;;;13.40;98.20;;;;;;5033448;28;20406;-85
2021/10/10 11:56:32;;;;;;;14.80;7.53;;;13.40;98.90;;;;;;5032473;28;20855;-85
2021/10/10 11:59:11;;;;;;;11.35;7.55;;;13.50;99.30;;;;;;5045716;28;20387;-85
2021/10/10 12:01:37;;;;;;;10.98;7.22;;;13.50;99.00;;;;;;5051922;28;20885;-85
2021/10/10 12:04:03;;;;;;;14.32;7.45;;;13.60;99.00;;;;;;5052141;28;20795;-86
2021/10/10 12:06:30;;;;;;;13.35;7.40;;;13.60;99.40;;;;;;5052832;28;20407;-85
2021/10/10 12:09:11;;;;;;;13.07;8.07;;;13.60;98.50;;;;;;5029629;28;20450;-87
2021/10/10 12:11:38;;;;;;;19.02;8.25;;;13.50;98.00;;;;;;5052050;28;20812;-84
2021/10/10 12:14:04;;;;;;;12.02;8.52;;;13.60;99.00;;;;;;5051390;28;20389;-84
2021/10/10 12:16:42;;;;;;;9.90;8.05;;;13.60;98.30;;;;;;5031321;28;20397;-86
2021/10/10 12:19:09;;;;;;;12.45;8.65;;;13.60;98.20;;;;;;5015974;28;20369;-86
2021/10/10 12:21:36;;;;;;;14.18;7.75;;;13.50;97.50;;;;;;5017924;28;20508;-85
2021/10/10 12:24:17;;;;;;;11.65;7.10;;;13.60;98.40;;;;;;5019716;28;20408;-86
2021/10/10 12:26:51;;;;;;;13.45;8.23;;;13.60;98.20;;;;;;5018950;28;20386;-85
2021/10/10 12:29:30;;;;;;;9.68;7.43;;;13.60;98.00;;;;;;5032416;28;20921;-84
2021/10/10 12:32:22;;;;;;;17.60;8.25;;;13.60;98.90;;;;;;5007321;28;20488;-83
2021/10/10 12:34:49;;;;;;;15.33;7.97;;;13.50;97.90;;;;;;5034385;28;20410;-85
2021/10/10 12:37:24;;;;;;;12.38;7.75;;;13.50;98.50;;;;;;5014994;28;20425;-86
2021/10/10 12:39:50;;;;;;;10.32;7.43;;;13.50;97.70;;;;;;5008502;28;20445;-85
2021/10/10 12:42:21;;;;;;;17.70;8.15;;;13.50;98.60;;;;;;5010483;28;20802;-86
2021/10/10 12:45:10;;;;;;;18.85;8.25;;;13.60;99.00;;;;;;5033972;28;20394;-86
2021/10/10 12:47:37;;;;;;;12.80;6.97;;;13.60;98.20;;;;;;5018043;28;20408;-84
2021/10/10 12:50:08;;;;;;;18.73;7.68;;;13.60;97.50;;;;;;5047672;28;20393;-85